Startpagina
METAR-TAF:

METAR-TAF

Vliegvelden :

Istres, Frankrijk

breedte: 43-31N, lengte: 004-56E, hoogte: 23 m

Actueel weer

Dit bericht is 40 minuten geleden gemaakt, om 20:30 UTC
Wind 3 kt uit het noordoosten
Temperatuur 9°C
Vochtigheid 81%
Druk 1027 hPa
Zicht 10 km of meer
geen wolken onder 1500 m en geen cumulonimbus

METAR: LFMI 232030Z AUTO 04003KT CAVOK 09/06 Q1027 BECMG 30010KT

Tijdstip: 22:10 (21:10 UTC)

Verwachting

Dit bericht is 1 uur en het 10 minuten geleden gemaakt, om 20:00 UTC
Verwachting geldig van 23 om 21 UTC tot 24 om 21 UTC
Wind 10 kt uit het westnoordwesten
Zicht 10 km of meer
geen wolken onder 1500 m en geen cumulonimbus
Tijdelijke
van 24 om 02 UTC tot 24 om 10 UTC
Wind 15 kt uit het noorden met uitschieters tot 25 kt
Wijzigt naar
van 24 om 18 UTC tot 24 om 20 UTC
Wind 5 kt uit variabele richting

TAF: LFMI 232000Z 2321/2421 30010KT CAVOK TEMPO 2402/2410 35015G25KT BECMG 2418/2420 VRB05KT

Waarnemingen en weersverwachtingen van meer dan 4000 vliegvelden (METAR en TAF).

De beschikbare stations zijn de gele en rode punten op de kaart.

Ga met uw muis naar het station om de naam te zien.

Klik dan om waarnemingen en weersverwachtingen te zien.

kaart wijzigen: klik op de groene knoppen met een zwart kruis om in te zoomen, op de groene knop met een streepje om uit te zoomen of op de groene pijlen voor aangrenzende kaarten.


METAR-TAF: